createdAt,value
2019-05-01T01:01:45.751Z,18.80
2019-05-01T01:04:16.313Z,19.12
2019-05-01T01:06:45.571Z,18.15
2019-05-01T01:09:16.044Z,18.27
2019-05-01T01:11:45.397Z,19.87
2019-05-01T01:14:14.601Z,20.23
2019-05-01T01:16:43.893Z,20.75
2019-05-01T01:19:13.314Z,21.55
2019-05-01T01:21:42.587Z,21.73
2019-05-01T01:24:11.841Z,20.27
2019-05-01T01:26:41.100Z,20.43
2019-05-01T01:29:10.348Z,19.98
2019-05-01T01:31:39.603Z,24.60
2019-05-01T01:34:09.257Z,23.38
2019-05-01T01:36:38.420Z,22.62
2019-05-01T01:39:07.664Z,22.58
2019-05-01T01:41:36.928Z,22.85
2019-05-01T01:44:07.810Z,23.07
2019-05-01T01:46:38.671Z,21.77
2019-05-01T01:49:07.843Z,19.02
2019-05-01T01:51:37.367Z,19.60
2019-05-01T01:54:09.432Z,18.82
2019-05-01T01:56:39.107Z,18.65
2019-05-01T01:59:08.343Z,18.15
2019-05-01T02:01:39.343Z,17.48
2019-05-01T02:04:13.303Z,17.60
2019-05-01T02:06:42.547Z,17.42
2019-05-01T02:09:12.197Z,17.55
2019-05-01T02:11:41.465Z,17.10
2019-05-01T02:14:10.804Z,16.85
2019-05-01T02:16:40.162Z,17.48
2019-05-01T02:19:09.433Z,16.70
2019-05-01T02:21:38.758Z,17.80
2019-05-01T02:24:07.990Z,17.30
2019-05-01T02:26:38.808Z,17.00
2019-05-01T02:29:19.066Z,16.57
2019-05-01T02:31:50.713Z,15.70
2019-05-01T02:34:19.920Z,16.35
2019-05-01T02:36:50.613Z,15.45
2019-05-01T02:39:19.844Z,16.93
2019-05-01T02:41:49.405Z,17.00
2019-05-01T02:44:25.035Z,17.12
2019-05-01T02:46:54.291Z,16.20
2019-05-01T02:49:41.954Z,16.23
2019-05-01T02:52:11.896Z,15.15
2019-05-01T02:54:42.706Z,16.00
2019-05-01T02:57:13.763Z,16.40
2019-05-01T02:59:44.828Z,15.32
2019-05-01T03:02:13.990Z,15.68
2019-05-01T03:04:43.209Z,15.60
2019-05-01T03:07:12.558Z,16.37
2019-05-01T03:09:41.865Z,15.68
2019-05-01T03:12:11.129Z,15.55
2019-05-01T03:14:42.608Z,15.93
2019-05-01T03:17:16.436Z,16.00
2019-05-01T03:19:47.252Z,15.23
2019-05-01T03:22:23.966Z,14.15
2019-05-01T03:24:53.382Z,14.23
2019-05-01T03:27:22.619Z,15.53
2019-05-01T03:29:52.055Z,14.75
2019-05-01T03:32:21.270Z,14.28
2019-05-01T03:34:52.686Z,15.38
2019-05-01T03:37:21.907Z,15.75
2019-05-01T03:39:51.155Z,15.58
2019-05-01T03:42:20.590Z,16.02
2019-05-01T03:44:51.016Z,14.53
2019-05-01T03:47:20.916Z,15.90
2019-05-01T03:49:50.136Z,15.25
2019-05-01T03:52:19.452Z,15.88
2019-05-01T03:54:48.633Z,14.93
2019-05-01T03:57:17.924Z,14.18
2019-05-01T03:59:47.169Z,14.83
2019-05-01T04:02:33.812Z,15.98
2019-05-01T04:04:58.145Z,15.80
2019-05-01T04:07:27.499Z,16.32
2019-05-01T04:09:56.680Z,17.20
2019-05-01T04:12:26.124Z,17.17
2019-05-01T04:14:55.438Z,16.55
2019-05-01T04:17:26.264Z,16.20
2019-05-01T04:19:55.555Z,15.53
2019-05-01T04:22:24.812Z,16.55
2019-05-01T04:24:53.968Z,16.48
2019-05-01T04:27:24.839Z,15.98
2019-05-01T04:29:55.660Z,17.35
2019-05-01T04:32:26.542Z,16.93
2019-05-01T04:35:14.343Z,16.82
2019-05-01T04:37:43.661Z,16.75
2019-05-01T04:40:12.835Z,15.60
2019-05-01T04:42:42.075Z,19.12
2019-05-01T04:45:11.332Z,20.10
2019-05-01T04:47:40.573Z,22.37
2019-05-01T04:50:09.802Z,17.60
2019-05-01T04:52:39.623Z,18.32
2019-05-01T04:55:08.903Z,20.90
2019-05-01T04:57:38.452Z,23.65
2019-05-01T05:00:07.773Z,22.87
2019-05-01T05:02:38.598Z,25.25
2019-05-01T05:05:07.792Z,22.70
2019-05-01T05:07:37.039Z,21.95
2019-05-01T05:10:06.672Z,20.43
2019-05-01T05:12:40.642Z,19.67
2019-05-01T05:15:23.294Z,18.35
2019-05-01T05:17:52.593Z,18.75
2019-05-01T05:20:21.772Z,17.77
2019-05-01T05:22:51.030Z,18.07
2019-05-01T05:25:20.251Z,17.90
2019-05-01T05:27:49.605Z,20.00
2019-05-01T05:30:18.848Z,19.42
2019-05-01T05:32:48.084Z,21.17
2019-05-01T05:35:17.529Z,22.67
2019-05-01T05:37:57.056Z,24.72
2019-05-01T05:40:28.082Z,23.07
2019-05-01T05:42:57.390Z,25.82
2019-05-01T05:45:26.929Z,24.95
2019-05-01T05:47:56.172Z,23.92
2019-05-01T05:50:29.941Z,22.30
2019-05-01T05:53:09.618Z,21.30
2019-05-01T05:55:44.574Z,22.65
2019-05-01T05:58:24.610Z,19.45
2019-05-01T06:01:05.103Z,18.75
2019-05-01T06:03:52.281Z,19.35
2019-05-01T06:06:44.517Z,19.75
2019-05-01T06:09:15.633Z,19.67
2019-05-01T06:11:55.416Z,19.02
2019-05-01T06:14:42.582Z,18.45
2019-05-01T06:17:16.472Z,19.25
2019-05-01T06:19:50.949Z,19.32
2019-05-01T06:22:24.877Z,18.10
2019-05-01T06:25:02.057Z,19.95
2019-05-01T06:27:31.690Z,21.20
2019-05-01T06:30:01.035Z,19.70
2019-05-01T06:32:33.588Z,20.92
2019-05-01T06:35:03.052Z,18.98
2019-05-01T06:38:02.453Z,18.95
2019-05-01T06:40:39.692Z,17.55
2019-05-01T06:43:13.163Z,18.02
2019-05-01T06:45:51.684Z,17.00
2019-05-01T06:48:20.966Z,17.87
2019-05-01T06:50:54.790Z,15.13
2019-05-01T06:53:44.612Z,16.85
2019-05-01T06:56:13.786Z,17.70
2019-05-01T06:58:42.989Z,17.57
2019-05-01T07:01:13.865Z,16.50
2019-05-01T07:03:47.012Z,17.35
2019-05-01T07:06:15.581Z,18.02
2019-05-01T07:08:44.756Z,18.23
2019-05-01T07:11:15.561Z,18.95
2019-05-01T07:16:24.923Z,15.38
2019-05-01T07:18:58.081Z,16.55
2019-05-01T07:21:27.353Z,16.27
2019-05-01T07:23:57.946Z,16.07
2019-05-01T07:26:27.546Z,14.50
2019-05-01T07:28:58.397Z,14.45
2019-05-01T07:31:31.014Z,13.83
2019-05-01T07:33:58.670Z,14.68
2019-05-01T07:36:27.877Z,13.03
2019-05-01T07:38:57.146Z,14.20
2019-05-01T07:41:26.661Z,13.93
2019-05-01T07:44:01.006Z,14.50
2019-05-01T07:46:31.959Z,14.18
2019-05-01T07:49:01.350Z,14.97
2019-05-01T07:51:30.651Z,13.55
2019-05-01T07:54:04.074Z,12.13
2019-05-01T07:56:31.024Z,12.77
2019-05-01T07:59:00.654Z,11.68
2019-05-01T08:01:37.583Z,11.78
2019-05-01T08:04:07.334Z,11.63
2019-05-01T08:06:36.593Z,12.53
2019-05-01T08:09:11.301Z,12.63
2019-05-01T08:11:39.179Z,13.28
2019-05-01T08:14:12.007Z,12.93
2019-05-01T08:16:42.427Z,12.80
2019-05-01T08:19:15.533Z,13.60
2019-05-01T08:21:51.961Z,13.85
2019-05-01T08:24:23.050Z,21.12
2019-05-01T08:26:52.332Z,13.80
2019-05-01T08:29:43.691Z,13.48
2019-05-01T08:32:23.253Z,12.07
2019-05-01T08:34:55.759Z,11.70
2019-05-01T08:37:27.145Z,10.38
2019-05-01T08:39:56.317Z,11.55
2019-05-01T08:42:25.556Z,10.70
2019-05-01T08:45:05.043Z,11.20
2019-05-01T08:47:37.436Z,10.95
2019-05-01T08:50:19.943Z,10.25
2019-05-01T08:52:49.104Z,9.38
2019-05-01T08:55:18.413Z,9.55
2019-05-01T08:57:47.743Z,9.73
2019-05-01T09:00:17.075Z,10.00
2019-05-01T09:02:46.326Z,11.68
2019-05-01T09:05:28.148Z,10.85
2019-05-01T09:07:46.984Z,10.50
2019-05-01T09:12:48.784Z,11.93
2019-05-01T09:15:18.954Z,15.10
2019-05-01T09:17:48.258Z,12.45
2019-05-01T09:20:17.425Z,11.03
2019-05-01T09:22:46.694Z,10.28
2019-05-01T09:25:17.507Z,9.40
2019-05-01T09:27:51.364Z,8.50
2019-05-01T09:30:26.758Z,8.90
2019-05-01T09:32:54.467Z,8.63
2019-05-01T09:35:24.092Z,8.53
2019-05-01T09:37:53.259Z,9.80
2019-05-01T09:40:22.526Z,9.28
2019-05-01T09:42:54.724Z,8.50
2019-05-01T09:45:22.697Z,9.33
2019-05-01T09:47:51.989Z,7.62
2019-05-01T09:50:25.794Z,8.25
2019-05-01T09:53:10.740Z,7.75
2019-05-01T09:55:44.521Z,8.60
2019-05-01T09:58:13.820Z,8.33
2019-05-01T10:00:43.503Z,7.85
2019-05-01T10:03:13.190Z,7.65
2019-05-01T10:05:44.196Z,8.60
2019-05-01T10:08:13.530Z,7.95
2019-05-01T10:10:42.702Z,7.55
2019-05-01T10:13:12.031Z,8.53
2019-05-01T10:15:41.201Z,8.85
2019-05-01T10:18:10.497Z,8.85
2019-05-01T10:20:39.741Z,8.03
2019-05-01T10:23:13.058Z,8.75
2019-05-01T10:25:42.908Z,8.25
2019-05-01T10:28:26.513Z,8.93
2019-05-01T10:31:06.909Z,7.97
2019-05-01T10:33:39.487Z,9.00
2019-05-01T10:36:28.507Z,8.95
2019-05-01T10:38:57.919Z,8.18
2019-05-01T10:41:27.163Z,9.35
2019-05-01T10:43:56.359Z,8.45
2019-05-01T10:46:25.529Z,8.85
2019-05-01T10:48:57.206Z,8.63
2019-05-01T10:51:25.669Z,9.63
2019-05-01T10:53:55.420Z,8.90
2019-05-01T10:56:24.699Z,8.88
2019-05-01T10:58:53.941Z,9.08
2019-05-01T11:01:34.002Z,9.70
2019-05-01T11:04:03.925Z,8.53
2019-05-01T11:06:33.178Z,8.28
2019-05-01T11:09:02.876Z,9.08
2019-05-01T11:11:32.115Z,8.90
2019-05-01T11:14:01.282Z,9.65
2019-05-01T11:16:30.528Z,8.75
2019-05-01T11:18:59.844Z,7.15
2019-05-01T11:21:29.097Z,7.17
2019-05-01T11:23:58.338Z,7.17
2019-05-01T11:26:27.620Z,6.95
2019-05-01T11:28:56.864Z,6.87
2019-05-01T11:31:30.709Z,7.45
2019-05-01T11:34:17.916Z,7.08
2019-05-01T11:36:51.682Z,7.45
2019-05-01T11:39:28.529Z,6.55
2019-05-01T11:42:11.347Z,7.87
2019-05-01T11:44:40.645Z,7.12
2019-05-01T11:47:09.883Z,6.35
2019-05-01T11:49:39.062Z,6.50
2019-05-01T11:52:08.340Z,6.42
2019-05-01T11:54:37.610Z,8.60
2019-05-01T11:57:06.776Z,7.65
2019-05-01T11:59:36.138Z,7.08
2019-05-01T12:02:05.417Z,6.37
2019-05-01T12:04:34.587Z,5.95
2019-05-01T12:07:03.874Z,6.70
2019-05-01T12:09:33.727Z,4.60
2019-05-01T12:12:07.486Z,4.70
2019-05-01T12:14:36.723Z,4.85
2019-05-01T12:17:13.480Z,5.05
2019-05-01T12:19:42.722Z,5.10
2019-05-01T12:22:11.959Z,5.22
2019-05-01T12:24:41.132Z,5.58
2019-05-01T12:27:10.454Z,8.85
2019-05-01T12:29:39.897Z,8.08
2019-05-01T12:32:09.147Z,6.60
2019-05-01T12:34:38.463Z,6.90
2019-05-01T12:37:18.081Z,6.80
2019-05-01T12:39:47.314Z,5.62
2019-05-01T12:42:18.266Z,5.67
2019-05-01T12:44:47.554Z,6.03
2019-05-01T12:47:18.358Z,6.00
2019-05-01T12:49:49.395Z,6.20
2019-05-01T12:52:36.791Z,5.75
2019-05-01T12:55:08.511Z,5.05
2019-05-01T12:57:37.896Z,4.80
2019-05-01T13:00:10.724Z,5.15
2019-05-01T13:02:40.113Z,5.62
2019-05-01T13:05:09.422Z,5.78
2019-05-01T13:07:38.681Z,6.08
2019-05-01T13:10:09.684Z,6.17
2019-05-01T13:12:39.080Z,5.97
2019-05-01T13:15:08.591Z,5.78
2019-05-01T13:17:38.043Z,5.87
2019-05-01T13:20:08.100Z,5.58
2019-05-01T13:22:37.548Z,6.62
2019-05-01T13:25:07.531Z,6.25
2019-05-01T13:27:38.524Z,5.97
2019-05-01T13:30:12.179Z,5.47
2019-05-01T13:32:52.276Z,7.08
2019-05-01T13:35:21.684Z,6.05
2019-05-01T13:37:50.966Z,5.80
2019-05-01T13:40:20.583Z,5.92
2019-05-01T13:42:49.964Z,5.37
2019-05-01T13:45:19.342Z,5.08
2019-05-01T13:47:48.747Z,5.17
2019-05-01T13:50:18.115Z,5.30
2019-05-01T13:52:47.451Z,5.72
2019-05-01T13:55:16.807Z,5.45
2019-05-01T13:57:46.102Z,5.78
2019-05-01T14:00:16.188Z,6.90
2019-05-01T14:02:45.515Z,5.92
2019-05-01T14:05:14.887Z,4.90
2019-05-01T14:07:44.331Z,5.85
2019-05-01T14:10:13.729Z,6.08
2019-05-01T14:12:43.136Z,5.20
2019-05-01T14:15:12.564Z,6.30
2019-05-01T14:17:41.880Z,5.42
2019-05-01T14:20:18.711Z,6.25
2019-05-01T14:22:52.049Z,5.25
2019-05-01T14:25:21.296Z,4.95
2019-05-01T14:27:50.691Z,6.40
2019-05-01T14:30:20.023Z,6.55
2019-05-01T14:32:51.741Z,5.20
2019-05-01T14:38:18.633Z,5.22
2019-05-01T14:40:48.160Z,4.95
2019-05-01T14:43:17.457Z,5.15
2019-05-01T14:45:46.638Z,6.00
2019-05-01T14:48:15.876Z,5.90
2019-05-01T14:50:45.191Z,4.67
2019-05-01T14:53:14.442Z,7.80
2019-05-01T14:55:43.750Z,6.35
2019-05-01T14:58:12.926Z,6.35
2019-05-01T15:00:42.393Z,10.23
2019-05-01T15:03:11.668Z,9.13
2019-05-01T15:05:40.911Z,10.15
2019-05-01T15:08:10.189Z,10.90
2019-05-01T15:10:39.484Z,9.55
2019-05-01T15:13:10.324Z,7.90
2019-05-01T15:15:41.142Z,6.35
2019-05-01T15:18:17.830Z,6.58
2019-05-01T15:20:47.086Z,6.50
2019-05-01T15:23:16.300Z,6.78
2019-05-01T15:25:45.528Z,7.90
2019-05-01T15:28:14.769Z,6.42
2019-05-01T15:30:44.014Z,7.08
2019-05-01T15:33:13.311Z,7.95
2019-05-01T15:35:42.497Z,7.28
2019-05-01T15:38:11.671Z,6.25
2019-05-01T15:40:54.713Z,6.10
2019-05-01T15:43:25.530Z,5.62
2019-05-01T15:45:54.782Z,6.05
2019-05-01T15:48:23.999Z,6.30
2019-05-01T15:50:53.221Z,6.75
2019-05-01T15:53:22.469Z,5.15
2019-05-01T15:55:51.689Z,6.22
2019-05-01T15:58:21.040Z,5.92
2019-05-01T16:00:50.290Z,6.00
2019-05-01T16:03:19.495Z,5.62
2019-05-01T16:05:48.712Z,6.08
2019-05-01T16:08:17.959Z,6.00
2019-05-01T16:11:04.070Z,5.50
2019-05-01T16:13:33.240Z,5.28
2019-05-01T16:16:02.586Z,6.37
2019-05-01T16:18:31.998Z,6.28
2019-05-01T16:21:01.168Z,5.58
2019-05-01T16:23:30.461Z,5.83
2019-05-01T16:26:05.847Z,7.55
2019-05-01T16:28:35.182Z,6.12
2019-05-01T16:31:04.905Z,6.30
2019-05-01T16:33:34.172Z,7.78
2019-05-01T16:36:03.429Z,6.85
2019-05-01T16:38:34.455Z,6.25
2019-05-01T16:41:05.288Z,14.03
2019-05-01T16:43:35.309Z,7.28
2019-05-01T16:46:04.633Z,10.80
2019-05-01T16:48:33.927Z,22.10
2019-05-01T16:51:03.112Z,6.87
2019-05-01T16:53:32.425Z,9.93
2019-05-01T16:56:01.835Z,8.35
2019-05-01T16:58:32.092Z,8.63
2019-05-01T17:01:03.856Z,9.43
2019-05-01T17:03:40.551Z,7.42
2019-05-01T17:06:27.608Z,7.00
2019-05-01T17:09:04.637Z,7.28
2019-05-01T17:11:33.879Z,7.65
2019-05-01T17:14:03.792Z,20.12
2019-05-01T17:16:33.058Z,22.58
2019-05-01T17:19:02.317Z,11.73
2019-05-01T17:21:31.538Z,19.10
2019-05-01T17:24:00.755Z,22.85
2019-05-01T17:26:29.960Z,20.85
2019-05-01T17:28:59.185Z,16.20
2019-05-01T17:31:28.530Z,22.93
2019-05-01T17:33:57.789Z,17.30
2019-05-01T17:36:27.075Z,9.08
2019-05-01T17:38:56.255Z,17.15
2019-05-01T17:41:27.233Z,15.90
2019-05-01T17:43:56.884Z,17.87
2019-05-01T17:46:26.478Z,35.30
2019-05-01T17:48:55.759Z,28.42
2019-05-01T17:51:25.053Z,30.30
2019-05-01T17:53:54.430Z,22.40
2019-05-01T17:56:28.274Z,26.60
2019-05-01T17:58:54.657Z,28.10
2019-05-01T18:01:37.575Z,31.05
2019-05-01T18:04:11.369Z,32.83
2019-05-01T18:06:46.571Z,30.35
2019-05-01T18:09:15.554Z,53.65
2019-05-01T18:11:47.418Z,28.90
2019-05-01T18:14:15.970Z,71.97
2019-05-01T18:16:45.219Z,34.25
2019-05-01T18:19:14.470Z,37.20
2019-05-01T18:21:46.807Z,33.33
2019-05-01T18:24:33.965Z,33.48
2019-05-01T18:27:07.835Z,25.72
2019-05-01T18:29:47.957Z,28.15
2019-05-01T18:32:21.833Z,31.42
2019-05-01T18:34:51.079Z,25.88
2019-05-01T18:37:21.919Z,25.60
2019-05-01T18:39:52.250Z,22.87
2019-05-01T18:42:21.556Z,22.75
2019-05-01T18:44:51.121Z,26.12
2019-05-01T18:47:20.398Z,17.62
2019-05-01T18:49:51.903Z,24.18
2019-05-01T18:52:21.158Z,19.80
2019-05-01T18:54:50.436Z,27.80
2019-05-01T18:57:19.685Z,21.97
2019-05-01T18:59:49.307Z,22.40
2019-05-01T19:02:20.503Z,20.85
2019-05-01T19:04:50.377Z,18.32
2019-05-01T19:07:24.217Z,17.12
2019-05-01T19:09:53.788Z,12.93
2019-05-01T19:12:23.271Z,11.48
2019-05-01T19:14:52.499Z,14.33
2019-05-01T19:17:21.882Z,13.83
2019-05-01T19:19:51.777Z,13.58
2019-05-01T19:22:21.037Z,9.23
2019-05-01T19:24:50.239Z,11.30
2019-05-01T19:27:20.838Z,10.05
2019-05-01T19:29:50.472Z,8.70
2019-05-01T19:32:20.981Z,8.30
2019-05-01T19:34:50.866Z,7.42
2019-05-01T19:37:22.082Z,7.17
2019-05-01T19:39:53.745Z,6.60
2019-05-01T19:42:23.677Z,6.28
2019-05-01T19:44:56.148Z,7.78
2019-05-01T19:47:23.911Z,7.80
2019-05-01T19:49:54.632Z,8.20
2019-05-01T19:52:24.147Z,9.15
2019-05-01T19:54:53.416Z,8.43
2019-05-01T19:57:22.739Z,7.50
2019-05-01T19:59:51.920Z,7.35
2019-05-01T20:02:22.118Z,8.18
2019-05-01T20:04:52.557Z,7.67
2019-05-01T20:07:21.777Z,7.58
2019-05-01T20:09:57.016Z,7.08
2019-05-01T20:12:22.602Z,7.70
2019-05-01T20:14:51.976Z,7.83
2019-05-01T20:17:21.222Z,7.80
2019-05-01T20:19:50.467Z,8.73
2019-05-01T20:22:19.994Z,9.43
2019-05-01T20:24:49.241Z,11.08
2019-05-01T20:27:18.551Z,9.40
2019-05-01T20:29:47.804Z,9.03
2019-05-01T20:32:21.145Z,9.13
2019-05-01T20:34:52.638Z,9.85
2019-05-01T20:37:19.112Z,9.70
2019-05-01T20:39:48.482Z,9.78
2019-05-01T20:42:17.680Z,9.48
2019-05-01T20:44:46.929Z,10.23
2019-05-01T20:47:23.431Z,10.32
2019-05-01T20:49:47.273Z,10.40
2019-05-01T20:52:16.585Z,10.78
2019-05-01T20:54:45.758Z,9.93
2019-05-01T20:57:22.831Z,11.18
2019-05-01T20:59:52.078Z,15.10
2019-05-01T21:02:21.494Z,19.50
2019-05-01T21:04:52.467Z,21.77
2019-05-01T21:07:23.513Z,16.20
2019-05-01T21:09:57.842Z,13.75
2019-05-01T21:12:28.266Z,11.12
2019-05-01T21:14:57.448Z,9.10
2019-05-01T21:17:26.697Z,9.40
2019-05-01T21:19:55.904Z,9.03
2019-05-01T21:22:25.113Z,8.55
2019-05-01T21:24:54.383Z,8.60
2019-05-01T21:27:24.318Z,8.60
2019-05-01T21:29:53.937Z,8.58
2019-05-01T21:32:27.466Z,8.48
2019-05-01T21:34:54.413Z,9.10
2019-05-01T21:37:23.591Z,9.58
2019-05-01T21:39:53.758Z,9.68
2019-05-01T21:42:24.470Z,11.20
2019-05-01T21:44:53.944Z,10.93
2019-05-01T21:47:23.719Z,10.13
2019-05-01T21:49:53.291Z,9.30
2019-05-01T21:52:26.461Z,9.75
2019-05-01T21:54:55.362Z,9.85
2019-05-01T21:57:27.198Z,8.98
2019-05-01T21:59:55.733Z,8.58
2019-05-01T22:02:24.985Z,8.88
2019-05-01T22:04:54.289Z,8.65
2019-05-01T22:07:27.652Z,9.03
2019-05-01T22:09:54.509Z,8.85
2019-05-01T22:12:23.878Z,8.00
2019-05-01T22:14:57.520Z,8.33
2019-05-01T22:17:34.264Z,8.03
2019-05-01T22:20:04.350Z,8.75
2019-05-01T22:22:38.604Z,8.45
2019-05-01T22:25:13.620Z,8.05
2019-05-01T22:27:53.270Z,8.70
2019-05-01T22:30:30.131Z,8.43
2019-05-01T22:33:00.257Z,8.65
2019-05-01T22:35:33.584Z,9.95
2019-05-01T22:38:03.054Z,10.60
2019-05-01T22:40:36.390Z,11.22
2019-05-01T22:43:06.910Z,10.98
2019-05-01T22:45:36.161Z,11.38
2019-05-01T22:48:05.469Z,12.00
2019-05-01T22:50:55.715Z,11.88
2019-05-01T22:53:24.941Z,10.95
2019-05-01T22:55:57.364Z,10.40
2019-05-01T22:58:25.333Z,10.45
2019-05-01T23:00:56.264Z,10.58
2019-05-01T23:03:27.088Z,10.75
2019-05-01T23:05:56.274Z,10.95
2019-05-01T23:08:25.499Z,11.30
2019-05-01T23:10:55.043Z,11.08
2019-05-01T23:13:24.480Z,10.75
2019-05-01T23:15:56.247Z,10.72
2019-05-01T23:18:26.520Z,13.35
2019-05-01T23:20:55.832Z,12.73
2019-05-01T23:23:25.146Z,12.28
2019-05-01T23:25:54.322Z,11.97
2019-05-01T23:28:23.596Z,11.10
2019-05-01T23:30:52.920Z,11.38
2019-05-01T23:33:22.127Z,11.03
2019-05-01T23:35:51.369Z,11.08
2019-05-01T23:38:20.647Z,10.80
2019-05-01T23:40:50.965Z,10.60
2019-05-01T23:43:23.077Z,11.60
2019-05-01T23:45:51.890Z,11.38
2019-05-01T23:48:21.485Z,11.45
2019-05-01T23:50:50.738Z,10.88
2019-05-01T23:53:19.946Z,10.03
2019-05-01T23:55:49.328Z,10.75
2019-05-01T23:58:18.614Z,10.60
